Weather observations for the past three days for
Le Lamentin
Imperial (Metric)
Date Time (ast) Wind (mph) Vis. (mi.) Weather Sky Cond. Temperature (ºF) Relative Humidity Wind Chill (°F) Heat Index (°F) Pressure Precipitation (in)
Air Dwpt 6 hour altimeter (in) sea level (mb) 1 hr 3 hr 6 hr
Max. Min.
08 12:00 E 16 0.00 A Few Clouds FEW036 87.8 69.8 55% 93 0 0.0
08 11:30 E 15 0.00 Mostly Cloudy BKN033 BKN039 BKN054 87.8 71.6 59% 94 0 0.0
08 11:00 NE 13 0.00 Mostly Cloudy BKN031 BKN039 87.8 71.6 59% 94 0 0.0
08 10:30 E 14 0.00 Partly Cloudy SCT034 86 69.8 59% 91 0 0.0
08 10:00 NE 12 0.00 Mostly Cloudy BKN034 86 69.8 59% 91 0 0.0
08 09:30 NE 15 0.00 Mostly Cloudy BKN034 BKN054 86 71.6 62% 92 0 0.0
08 09:00 NE 15 0.00 Mostly Cloudy SCT033 SCT040 BKN058 86 69.8 59% 91 0 0.0
08 08:30 E 15 0.00 Mostly Cloudy BKN030 BKN037 BKN045 82.4 71.6 70% 87 0 0.0
08 08:00 E 15 0.00 Mostly Cloudy SCT031 BKN037 BKN060 82.4 71.6 70% 87 0 0.0
08 07:30 E 10 0.00 Showers Rain SCT031 SCT038 SCT020TCU 82.4 69.8 66% 86 0 0.0
08 07:00 NE 9 0.00 Showers Rain SCT020TCU 80.6 69.8 70% 84 0 0.0
08 06:30 E 17 0.00 Showers Rain FEW033 SCT020TCU 78.8 69.8 74% 81 0 0.0
08 06:00 Vrbl 2 0.00 Showers Rain FEW028 SCT054 SCT020TCU 77 69.8 79% 79 0 0.0
08 05:30 Vrbl 1 0.00 Showers Rain FEW028 BKN056 SCT020TCU 77 69.8 79% 79 0 0.0
08 05:00 NE 3 0.00 Showers Rain BKN060 SCT020TCU 77 69.8 79% 79 0 0.0
08 04:30 Vrbl 1 0.00 Showers Rain FEW054 SCT020TCU 75.2 69.8 83% 75 0 0.0
08 04:00 Vrbl 1 0.00 Showers Rain SCT020TCU 77 69.8 79% 79 0 0.0
08 03:00 Vrbl 3 0.00 A Few Clouds FEW027 77 69.8 79% 79 0 0.0
08 02:00 Vrbl 3 0.00 NULL NULL 77 69.8 79% 79 0 0.0
08 01:00 NE 8 0.00 Showers Rain SCT028 SCT037 BKN048 SCT020TCU 78.8 69.8 74% 81 0 0.0
08 00:30 NE 7 0.00 Showers Rain FEW029 SCT036 SCT020TCU 78.8 69.8 74% 81 0 0.0
08 00:00 NE 7 0.00 A Few Clouds FEW028 78.8 69.8 74% 81 0 0.0
07 22:00 NE 10 0.00 Partly Cloudy SCT029 78.8 69.8 74% 81 0 0.0
07 21:30 NE 6 0.00 A Few Clouds FEW028 78.8 69.8 74% 81 0 0.0
07 21:00 NE 7 0.00 A Few Clouds FEW029 78.8 69.8 74% 81 0 0.0
07 20:30 NE 6 0.00 A Few Clouds FEW030 78.8 69.8 74% 81 0 0.0
07 20:00 NE 6 0.00 Partly Cloudy SCT030 SCT036 78.8 69.8 74% 81 0 0.0
07 19:30 NE 7 0.00 A Few Clouds FEW029 78.8 69.8 74% 81 0 0.0
07 19:00 NE 8 0.00 NULL NULL 78.8 69.8 74% 81 0 0.0
07 18:30 NE 8 0.00 A Few Clouds FEW029 80.6 69.8 70% 84 0 0.0
07 18:00 NE 10 0.00 A Few Clouds FEW030 82.4 69.8 66% 86 0 0.0
07 17:30 NE 12 0.00 A Few Clouds FEW032 82.4 68 62% 85 0 0.0
07 17:00 NE 10 0.00 NULL NULL 84.2 69.8 62% 88 0 0.0
07 16:30 NE 9 0.00 NULL NULL 86 68 55% 89 0 0.0
07 16:00 NE 14 0.00 NULL NULL 86 69.8 59% 91 0 0.0
07 15:30 NE 13 0.00 A Few Clouds FEW038 87.8 69.8 55% 93 0 0.0
07 15:00 NE 14 0.00 A Few Clouds FEW044 86 68 55% 89 0 0.0
07 14:30 E 15 0.00 Partly Cloudy SCT043 87.8 68 52% 91 0 0.0
07 14:00 NE 15 0.00 Partly Cloudy SCT042 87.8 66.2 49% 90 0 0.0
07 13:30 NE 16 0.00 A Few Clouds FEW042 89.6 68 49% 93 0 0.0
07 13:00 NE 16 0.00 A Few Clouds FEW043 87.8 66.2 49% 90 0 0.0
07 12:30 NE 15 0.00 A Few Clouds FEW044 87.8 69.8 55% 93 0 0.0
07 12:00 NE 16 0.00 Partly Cloudy FEW037 SCT046 87.8 71.6 59% 94 0 0.0
07 11:30 NE 15 0.00 A Few Clouds FEW037 87.8 69.8 55% 93 0 0.0
07 11:00 E 17 0.00 A Few Clouds FEW033 87.8 71.6 59% 94 0 0.0
07 10:30 E 17 0.00 Partly Cloudy SCT034 87.8 71.6 59% 94 0 0.0
07 10:00 E 16 0.00 Partly Cloudy SCT032 SCT043 86 71.6 62% 92 0 0.0
07 09:30 E 15 0.00 Partly Cloudy SCT028 86 71.6 62% 92 0 0.0
07 09:00 E 14 0.00 A Few Clouds FEW035 82.4 71.6 70% 87 0 0.0
07 08:30 NE 13 0.00 Mostly Cloudy FEW027 SCT037 BKN050 82.4 71.6 70% 87 0 0.0
07 08:00 NE 13 0.00 Partly Cloudy FEW031 SCT045 84.2 71.6 66% 90 0 0.0
07 07:30 NE 14 0.00 Partly Cloudy FEW026 SCT045 82.4 71.6 70% 87 0 0.0
07 07:00 NE 8 0.00 Showers Rain SCT025 BKN033 BKN041 SCT020TCU 80.6 71.6 74% 85 0 0.0
07 06:30 NE 9 0.00 Showers Rain FEW027 SCT020TCU 78.8 71.6 79% 82 0 0.0
07 06:00 NE 8 0.00 Showers Rain FEW022 SCT020TCU 78.8 73.4 84% 82 0 0.0
07 05:30 NE 6 0.00 Showers Rain FEW026 SCT020TCU 77 71.6 83% 78 0 0.0
07 05:00 E 5 0.00 Showers Rain FEW024 SCT047 SCT020TCU 77 71.6 83% 78 0 0.0
07 04:30 NE 5 0.00 Showers Rain SCT025 SCT047 SCT020TCU 78.8 73.4 84% 82 0 0.0
07 04:00 NE 7 0.00 Showers Rain BKN023 BKN028 BKN038 SCT020TCU 78.8 73.4 84% 82 0 0.0
07 03:30 NE 5 0.00 Showers Rain SCT025 BKN030 BKN049 SCT020TCU 78.8 73.4 84% 82 0 0.0
07 03:00 Calm 0.00 Showers Rain FEW023 SCT020TCU 77 73.4 89% 78 0 0.0
07 02:30 NE 5 0.00 Showers Rain FEW029 SCT020TCU 77 73.4 89% 78 0 0.0
07 02:00 NE 3 0.00 Showers Rain SCT020TCU 78.8 73.4 84% 82 0 0.0
07 01:30 NE 5 0.00 Showers Rain SCT020TCU 78.8 73.4 84% 82 0 0.0
07 01:00 NE 3 0.00 Showers Rain SCT020TCU 78.8 73.4 84% 82 0 0.0
07 00:30 NE 3 0.00 Showers Rain FEW022 SCT029 SCT020TCU 78.8 73.4 84% 82 0 0.0
07 00:00 Vrbl 2 0.00 Showers Rain SCT023 SCT020TCU 78.8 73.4 84% 82 0 0.0
06 23:30 Vrbl 3 0.00 Showers Rain FEW024 SCT020TCU 78.8 73.4 84% 82 0 0.0
06 23:00 E 3 0.00 Showers Rain FEW025 SCT033 BKN044 SCT020TCU 78.8 73.4 84% 82 0 0.0
06 22:30 E 3 0.00 Showers Rain SCT022 SCT020TCU 78.8 73.4 84% 82 0 0.0
06 22:00 E 5 0.00 Showers Rain SCT025 BKN046 BKN056 SCT020TCU 78.8 73.4 84% 82 0 0.0
06 21:30 E 6 0.00 Showers Rain FEW026 BKN048 BKN054 SCT020TCU 78.8 73.4 84% 82 0 0.0
06 21:00 E 6 0.00 Mostly Cloudy BKN023 78.8 75.2 89% 82 0 0.0
06 20:30 NE 6 0.00 Mostly Cloudy SCT024 BKN029 BKN054 80.6 75.2 84% 86 0 0.0
06 20:00 NE 5 0.00 Partly Cloudy SCT030 80.6 75.2 84% 86 0 0.0
06 19:30 NE 6 0.00 Partly Cloudy FEW024 SCT056 80.6 73.4 79% 85 0 0.0
06 19:00 NE 7 0.00 NULL NULL 80.6 73.4 79% 85 0 0.0
06 18:30 NE 8 0.00 A Few Clouds FEW029 82.4 73.4 74% 88 0 0.0
06 18:00 E 14 0.00 NULL NULL 82.4 73.4 74% 88 0 0.0
06 17:30 NE 12 0.00 A Few Clouds FEW028 84.2 73.4 70% 91 0 0.0
06 17:00 E 16 0.00 A Few Clouds FEW033 84.2 73.4 70% 91 0 0.0
06 16:30 E 13 0.00 NULL NULL 86 73.4 66% 93 0 0.0
06 16:00 E 16 0.00 A Few Clouds FEW033 87.8 71.6 59% 94 0 0.0
06 15:30 E 14 0.00 A Few Clouds FEW035 87.8 71.6 59% 94 0 0.0
06 15:00 E 16 0.00 A Few Clouds FEW036 87.8 71.6 59% 94 0 0.0
06 14:30 E 16 0.00 A Few Clouds FEW004 89.6 71.6 55% 96 0 0.0
06 14:00 E 18 0.00 A Few Clouds FEW039 89.6 71.6 55% 96 0 0.0
06 13:30 E 16 0.00 A Few Clouds FEW041 87.8 71.6 59% 94 0 0.0
06 13:00 E 18 0.00 A Few Clouds FEW038 89.6 69.8 52% 95 0 0.0
06 12:30 E 18 0.00 A Few Clouds FEW034 87.8 71.6 59% 94 0 0.0
06 12:00 E 18 0.00 Partly Cloudy SCT035 SCT045 87.8 71.6 59% 94 0 0.0
06 11:30 E 18 0.00 Partly Cloudy FEW033 SCT050 87.8 71.6 59% 94 0 0.0
06 10:30 E 16 0.00 Partly Cloudy FEW031 SCT052 87.8 73.4 62% 96 0 0.0
06 10:00 E 18 0.00 Partly Cloudy FEW034 SCT042 86 71.6 62% 92 0 0.0
06 09:30 E 17 0.00 Mostly Cloudy SCT033 SCT039 BKN054 84.2 71.6 66% 90 0 0.0
06 09:00 E 18 0.00 Mostly Cloudy FEW031 BKN054 86 71.6 62% 92 0 0.0
06 08:30 E 17 0.00 Partly Cloudy SCT028 SCT050 84.2 71.6 66% 90 0 0.0
06 08:00 E 16 0.00 Partly Cloudy SCT027 SCT036 84.2 71.6 66% 90 0 0.0
06 07:30 E 16 0.00 A Few Clouds FEW024 82.4 73.4 74% 88 0 0.0
06 07:00 E 12 0.00 Light Showers Rain FEW032 SCT020TCU 82.4 73.4 74% 88 0 0.0
06 06:30 E 10 0.00 Light Showers Rain SCT024 SCT033 BKN046 SCT020TCU 80.6 73.4 79% 85 0 0.0
06 06:00 E 8 0.00 Light Showers Rain FEW024 SCT043 SCT020TCU 78.8 73.4 84% 82 0 0.0
06 05:30 NE 7 0.00 Light Showers Rain FEW021 SCT020TCU 78.8 73.4 84% 82 0 0.0
06 05:00 NE 7 0.00 Light Showers Rain FEW025 SCT020TCU 78.8 73.4 84% 82 0 0.0
06 04:30 NE 7 0.00 Light Showers Rain FEW026 SCT034 SCT020TCU 78.8 73.4 84% 82 0 0.0
06 04:00 E 8 0.00 Light Showers Rain FEW024 SCT020TCU 78.8 71.6 79% 82 0 0.0
06 03:30 NE 6 0.00 Light Showers Rain FEW022 SCT020TCU 78.8 73.4 84% 82 0 0.0
06 03:00 Vrbl 3 0.00 A Few Clouds FEW022 78.8 73.4 84% 82 0 0.0
06 02:30 NE 6 0.00 A Few Clouds FEW022 78.8 73.4 84% 82 0 0.0
06 02:00 NE 3 0.00 A Few Clouds FEW023 78.8 71.6 79% 82 0 0.0
06 01:30 E 6 0.00 A Few Clouds FEW022 78.8 73.4 84% 82 0 0.0
06 01:00 E 9 0.00 Light Showers Rain FEW023 SCT066 BKN020TCU 78.8 73.4 84% 82 0 0.0
06 00:30 NE 3 0.00 Light Showers Rain FEW021 SCT052 BKN020TCU 78.8 73.4 84% 82 0 0.0
06 00:00 Vrbl 1 0.00 A Few Clouds FEW022 78.8 73.4 84% 82 0 0.0
05 23:30 Vrbl 2 0.00 Partly Cloudy SCT030 78.8 73.4 84% 82 0 0.0
05 23:00 NE 5 0.00 Partly Cloudy SCT022 SCT068 78.8 73.4 84% 82 0 0.0
05 22:30 E 8 0.00 Mostly Cloudy BKN022 BKN031 BKN054 78.8 75.2 89% 82 0 0.0
05 22:00 E 9 0.00 Light Rain FEW022 SCT037 BKN060 80.6 75.2 84% 86 0 0.0
05 21:30 NE 9 0.00 Partly Cloudy SCT023 SCT028 80.6 75.2 84% 86 0 0.0
05 21:00 E 12 0.00 Partly Cloudy FEW022 SCT038 80.6 73.4 79% 85 0 0.0
05 20:30 E 12 0.00 Partly Cloudy FEW021 SCT058 80.6 73.4 79% 85 0 0.0
05 20:00 NE 13 0.00 Light Rain FEW033 SCT062 80.6 75.2 84% 86 0 0.0
05 19:30 E 14 0.00 Showers Rain FEW041 SCT060 BKN020TCU 80.6 73.4 79% 85 0 0.0
05 19:00 E 10 0.00 Showers Rain SCT027 BKN064 BKN020TCU 80.6 73.4 79% 85 0 0.0
05 18:30 E 10 0.00 Showers Rain SCT024 SCT035 BKN020TCU 82.4 73.4 74% 88 0 0.0
05 18:00 E 6 0.00 Showers Rain FEW027 SCT052 BKN020TCU 82.4 73.4 74% 88 0 0.0
05 17:30 E 6 0.00 Showers Rain FEW027 SCT058 BKN020TCU 84.2 73.4 70% 91 0 0.0
05 17:00 E 6 0.00 Showers Rain SCT026 BKN033 BKN040 BKN020TCU 84.2 73.4 70% 91 0 0.0
05 16:30 E 6 0.00 Showers Rain FEW029 BKN020TCU 86 73.4 66% 93 0 0.0
05 16:00 E 6 0.00 Mostly Cloudy BKN028 BKN034 BKN041 86 73.4 66% 93 0 0.0
05 15:30 E 6 0.00 A Few Clouds FEW034 87.8 73.4 62% 96 0 0.0
05 15:00 E 20 0.00 Partly Cloudy FEW027 SCT043 87.8 71.6 59% 94 0 0.0
05 14:30 E 18 0.00 Mostly Cloudy SCT032 SCT048 BKN058 87.8 73.4 62% 96 0 0.0
05 14:00 E 18 0.00 Mostly Cloudy SCT032 BKN041 BKN056 87.8 73.4 62% 96 0 0.0
05 13:30 E 18 0.00 Partly Cloudy FEW034 SCT060 87.8 75.2 66% 98 0 0.0
05 13:00 E 17 0.00 NULL NULL 87.8 73.4 62% 96 0 0.0
Date Time (ast) Wind (mph) Vis. (mi.) Weather Sky Cond. Air Dwpt Max. Min. Relative Humidity Wind Chill (°F) Heat Index (°F) altimeter (in) sea level (mb) 1 hr 3 hr 6 hr
6 hour
Temperature (ºF) Pressure Precipitation (in)